createdAt,value
2023-04-08T04:00:24.873Z,6.96
2023-04-08T04:04:37.055Z,6.95
2023-04-08T04:08:50.267Z,6.97
2023-04-08T04:13:02.042Z,6.96
2023-04-08T04:17:13.564Z,6.92
2023-04-08T04:21:25.107Z,6.90
2023-04-08T04:25:36.686Z,6.91
2023-04-08T04:29:48.205Z,6.87
2023-04-08T04:33:59.743Z,6.87
2023-04-08T04:38:12.709Z,6.89
2023-04-08T04:42:24.257Z,6.89
2023-04-08T04:46:35.929Z,6.89
2023-04-08T04:50:58.588Z,6.90
2023-04-08T04:55:10.397Z,6.92
2023-04-08T04:59:21.941Z,6.93
2023-04-08T05:03:33.544Z,6.94
2023-04-08T05:07:45.134Z,6.92
2023-04-08T05:11:56.703Z,6.91
2023-04-08T05:16:08.277Z,6.91
2023-04-08T05:20:19.786Z,6.88
2023-04-08T05:24:31.288Z,6.89
2023-04-08T05:28:42.864Z,6.89
2023-04-08T05:32:54.627Z,6.93
2023-04-08T05:37:06.165Z,6.95
2023-04-08T05:41:17.858Z,6.96
2023-04-08T05:45:29.818Z,6.98
2023-04-08T05:49:41.745Z,6.98
2023-04-08T05:53:53.265Z,6.99
2023-04-08T05:58:04.807Z,7.03
2023-04-08T06:02:16.400Z,7.05
2023-04-08T06:06:28.010Z,7.11
2023-04-08T06:10:39.533Z,7.18
2023-04-08T06:14:56.878Z,7.26
2023-04-08T06:19:08.538Z,7.31
2023-04-08T06:23:20.071Z,7.35
2023-04-08T06:27:31.638Z,7.40
2023-04-08T06:31:43.201Z,7.45
2023-04-08T06:36:05.842Z,7.54
2023-04-08T06:40:17.513Z,7.60
2023-04-08T06:44:29.218Z,7.73
2023-04-08T06:48:40.921Z,7.84
2023-04-08T06:52:52.576Z,7.97
2023-04-08T06:57:04.386Z,8.06
2023-04-08T07:01:16.511Z,8.26
2023-04-08T07:05:28.151Z,8.34
2023-04-08T07:09:41.412Z,8.49
2023-04-08T07:13:52.959Z,8.51
2023-04-08T07:18:04.809Z,8.61
2023-04-08T07:22:17.216Z,8.62
2023-04-08T07:26:28.776Z,8.71
2023-04-08T07:30:40.318Z,8.80
2023-04-08T07:34:51.876Z,8.81
2023-04-08T07:39:03.585Z,8.98
2023-04-08T07:43:15.113Z,8.95
2023-04-08T07:47:27.189Z,9.16
2023-04-08T07:51:39.361Z,9.11
2023-04-08T07:55:50.920Z,9.27
2023-04-08T08:00:03.624Z,9.23
2023-04-08T08:04:27.765Z,9.39
2023-04-08T08:08:39.491Z,9.41
2023-04-08T08:12:51.164Z,9.61
2023-04-08T08:17:03.888Z,9.81
2023-04-08T08:21:15.920Z,9.76
2023-04-08T08:25:27.545Z,9.76
2023-04-08T08:29:39.124Z,9.96
2023-04-08T08:33:50.869Z,10.10
2023-04-08T08:38:02.588Z,10.20
2023-04-08T08:42:21.584Z,10.27
2023-04-08T08:46:34.173Z,10.56
2023-04-08T08:50:45.936Z,10.66
2023-04-08T08:54:59.059Z,10.83
2023-04-08T08:59:10.736Z,10.88
2023-04-08T09:03:28.018Z,10.62
2023-04-08T09:07:43.190Z,10.81
2023-04-08T09:12:04.515Z,11.31
2023-04-08T09:16:18.626Z,11.40
2023-04-08T09:20:30.125Z,11.37
2023-04-08T09:24:41.850Z,11.33
2023-04-08T09:29:11.495Z,10.90
2023-04-08T09:33:36.432Z,11.26
2023-04-08T09:37:49.024Z,11.49
2023-04-08T09:42:04.064Z,11.48
2023-04-08T09:46:25.955Z,12.00
2023-04-08T09:50:46.335Z,12.34
2023-04-08T09:55:05.039Z,12.05
2023-04-08T09:59:17.879Z,11.96
2023-04-08T10:03:34.697Z,12.02
2023-04-08T10:07:46.443Z,11.98
2023-04-08T10:11:58.259Z,12.01
2023-04-08T10:16:23.066Z,12.51
2023-04-08T10:20:34.697Z,13.03
2023-04-08T10:25:35.388Z,13.23
2023-04-08T10:29:48.345Z,13.43
2023-04-08T10:34:17.116Z,13.28
2023-04-08T10:38:28.860Z,13.61
2023-04-08T10:42:40.375Z,13.73
2023-04-08T10:46:56.744Z,13.79
2023-04-08T10:51:08.269Z,13.56
2023-04-08T10:55:26.877Z,12.95
2023-04-08T10:59:39.785Z,12.99
2023-04-08T11:03:51.595Z,13.00
2023-04-08T11:08:04.010Z,13.61
2023-04-08T11:12:18.838Z,14.20
2023-04-08T11:16:30.613Z,14.30
2023-04-08T11:20:44.781Z,14.01
2023-04-08T11:24:57.070Z,13.57
2023-04-08T11:29:14.090Z,13.34
2023-04-08T11:33:27.198Z,13.14
2023-04-08T11:37:40.935Z,13.10
2023-04-08T11:41:53.190Z,13.09
2023-04-08T11:46:12.476Z,13.06
2023-04-08T11:50:25.858Z,13.18
2023-04-08T11:54:41.939Z,13.10
2023-04-08T11:58:53.574Z,12.98
2023-04-08T12:03:07.021Z,13.00
2023-04-08T12:07:18.765Z,12.87
2023-04-08T12:11:30.308Z,12.84
2023-04-08T12:15:42.093Z,12.81
2023-04-08T12:19:53.588Z,12.97
2023-04-08T12:24:05.195Z,13.04
2023-04-08T12:28:16.712Z,13.18
2023-04-08T12:32:28.793Z,13.03
2023-04-08T12:36:41.960Z,13.04
2023-04-08T12:40:53.575Z,13.06
2023-04-08T12:45:05.455Z,13.05
2023-04-08T12:49:17.071Z,12.87
2023-04-08T12:53:28.723Z,12.90
2023-04-08T12:57:40.360Z,12.80
2023-04-08T13:01:51.923Z,12.55
2023-04-08T13:06:03.532Z,12.65
2023-04-08T13:10:15.070Z,12.65
2023-04-08T13:14:27.385Z,12.65
2023-04-08T13:18:38.909Z,12.52
2023-04-08T13:22:50.446Z,12.57
2023-04-08T13:27:02.514Z,12.82
2023-04-08T13:31:14.021Z,12.78
2023-04-08T13:35:25.798Z,12.66
2023-04-08T13:39:37.448Z,12.72
2023-04-08T13:43:50.405Z,12.83
2023-04-08T13:48:02.122Z,12.89
2023-04-08T13:52:13.724Z,12.79
2023-04-08T13:56:25.503Z,12.82
2023-04-08T14:00:37.016Z,13.01
2023-04-08T14:04:48.684Z,13.20
2023-04-08T14:09:00.255Z,12.95
2023-04-08T14:13:11.723Z,12.90
2023-04-08T14:17:23.288Z,12.86
2023-04-08T14:21:34.884Z,12.71
2023-04-08T14:25:46.386Z,13.00
2023-04-08T14:29:57.895Z,13.06
2023-04-08T14:34:09.381Z,13.16
2023-04-08T14:38:21.342Z,13.07
2023-04-08T14:42:32.876Z,13.31
2023-04-08T14:46:44.400Z,13.40
2023-04-08T14:50:56.798Z,13.41
2023-04-08T14:55:08.494Z,13.38
2023-04-08T14:59:19.999Z,13.38
2023-04-08T15:03:31.635Z,13.00
2023-04-08T15:07:43.341Z,13.37
2023-04-08T15:11:54.900Z,13.21
2023-04-08T15:16:06.654Z,13.04
2023-04-08T15:20:21.189Z,12.86
2023-04-08T15:24:32.684Z,12.70
2023-04-08T15:28:44.221Z,12.70
2023-04-08T15:32:57.463Z,12.74
2023-04-08T15:37:09.111Z,12.70
2023-04-08T15:41:22.009Z,12.75
2023-04-08T15:45:33.535Z,12.81
2023-04-08T15:49:45.064Z,12.69
2023-04-08T15:53:57.383Z,12.84
2023-04-08T15:58:08.920Z,12.69
2023-04-08T16:02:20.605Z,12.47
2023-04-08T16:06:33.305Z,12.34
2023-04-08T16:10:45.881Z,12.23
2023-04-08T16:14:57.780Z,12.26
2023-04-08T16:19:09.312Z,12.19
2023-04-08T16:23:21.006Z,12.12
2023-04-08T16:27:32.842Z,12.11
2023-04-08T16:31:44.409Z,12.01
2023-04-08T16:35:56.965Z,11.98
2023-04-08T16:40:09.038Z,11.96
2023-04-08T16:44:20.544Z,12.01
2023-04-08T16:48:32.443Z,11.97
2023-04-08T16:52:49.275Z,11.91
2023-04-08T16:57:00.772Z,11.82
2023-04-08T17:01:14.162Z,11.78
2023-04-08T17:05:26.446Z,11.71
2023-04-08T17:09:38.042Z,11.67
2023-04-08T17:13:49.878Z,11.68
2023-04-08T17:18:01.592Z,11.57
2023-04-08T17:22:13.133Z,11.47
2023-04-08T17:26:24.650Z,11.48
2023-04-08T17:30:36.137Z,11.48
2023-04-08T17:34:47.661Z,11.40
2023-04-08T17:38:59.214Z,11.38
2023-04-08T17:43:10.995Z,11.29
2023-04-08T17:47:22.515Z,11.24
2023-04-08T17:51:34.746Z,11.23
2023-04-08T17:55:46.249Z,11.24
2023-04-08T17:59:57.705Z,11.15
2023-04-08T18:04:10.425Z,11.08
2023-04-08T18:08:23.117Z,11.07
2023-04-08T18:12:34.613Z,10.95
2023-04-08T18:16:46.186Z,10.96
2023-04-08T18:20:57.705Z,10.90
2023-04-08T18:25:09.824Z,10.82
2023-04-08T18:29:21.287Z,10.79
2023-04-08T18:33:32.766Z,10.79
2023-04-08T18:37:44.295Z,10.74
2023-04-08T18:41:56.575Z,10.77
2023-04-08T18:46:08.104Z,10.72
2023-04-08T18:50:19.681Z,10.71
2023-04-08T18:54:31.733Z,10.60
2023-04-08T18:58:44.434Z,10.54
2023-04-08T19:02:56.986Z,10.49
2023-04-08T19:07:08.996Z,10.43
2023-04-08T19:11:20.818Z,10.38
2023-04-08T19:15:32.366Z,10.29
2023-04-08T19:19:43.835Z,10.22
2023-04-08T19:23:55.308Z,10.19
2023-04-08T19:28:08.353Z,10.17
2023-04-08T19:32:20.074Z,10.02
2023-04-08T19:36:31.976Z,9.95
2023-04-08T19:40:43.554Z,9.81
2023-04-08T19:44:55.250Z,9.76
2023-04-08T19:49:06.771Z,9.69
2023-04-08T19:53:18.243Z,9.70
2023-04-08T19:57:30.064Z,9.54
2023-04-08T20:01:41.688Z,9.49
2023-04-08T20:05:53.372Z,9.34
2023-04-08T20:10:05.465Z,9.27
2023-04-08T20:14:17.180Z,9.19
2023-04-08T20:18:29.259Z,9.19
2023-04-08T20:22:41.687Z,9.07
2023-04-08T20:26:53.580Z,8.94
2023-04-08T20:31:05.256Z,8.82
2023-04-08T20:35:16.840Z,8.75
2023-04-08T20:39:31.792Z,8.59
2023-04-08T20:43:43.320Z,8.41
2023-04-08T20:47:55.569Z,8.40
2023-04-08T20:52:07.124Z,8.30
2023-04-08T20:56:18.639Z,8.28
2023-04-08T21:00:30.556Z,8.13
2023-04-08T21:04:42.036Z,8.01
2023-04-08T21:08:53.832Z,7.97
2023-04-08T21:13:05.648Z,7.85
2023-04-08T21:17:17.320Z,7.77
2023-04-08T21:21:28.799Z,7.71
2023-04-08T21:25:40.369Z,7.58
2023-04-08T21:29:54.713Z,7.54
